createdAt,value
2023-02-22T00:03:39.342Z,7.10
2023-02-22T00:08:38.710Z,7.45
2023-02-22T00:13:38.170Z,6.03
2023-02-22T00:18:37.919Z,7.05
2023-02-22T00:23:41.115Z,5.90
2023-02-22T00:28:40.097Z,7.45
2023-02-22T00:33:40.420Z,7.80
2023-02-22T00:38:42.234Z,7.32
2023-02-22T00:43:41.552Z,6.68
2023-02-22T00:48:40.462Z,6.85
2023-02-22T00:53:40.708Z,6.75
2023-02-22T00:58:39.714Z,6.10
2023-02-22T01:03:41.389Z,6.90
2023-02-22T01:08:45.539Z,5.78
2023-02-22T01:13:45.658Z,6.28
2023-02-22T01:18:44.601Z,6.65
2023-02-22T01:23:45.778Z,7.88
2023-02-22T01:28:44.525Z,6.60
2023-02-22T01:33:43.376Z,6.55
2023-02-22T01:38:42.214Z,6.68
2023-02-22T01:43:42.273Z,5.47
2023-02-22T01:48:44.526Z,6.13
2023-02-22T01:53:47.808Z,5.78
2023-02-22T02:03:50.667Z,5.82
2023-02-22T02:09:00.129Z,6.18
2023-02-22T02:14:00.459Z,5.88
2023-02-22T02:18:59.595Z,5.68
2023-02-22T02:24:23.552Z,6.00
2023-02-22T02:30:02.906Z,5.45
2023-02-22T02:35:08.832Z,5.15
2023-02-22T02:40:17.949Z,5.57
2023-02-22T02:45:23.396Z,5.28
2023-02-22T02:50:28.602Z,5.25
2023-02-22T02:55:28.530Z,4.97
2023-02-22T03:00:39.371Z,5.65
2023-02-22T03:06:05.373Z,5.90
2023-02-22T03:11:15.434Z,5.22
2023-02-22T03:16:22.763Z,5.72
2023-02-22T03:21:31.103Z,4.38
2023-02-22T03:26:36.482Z,5.35
2023-02-22T03:31:41.597Z,5.82
2023-02-22T03:36:46.634Z,5.63
2023-02-22T03:41:51.567Z,6.22
2023-02-22T03:47:00.685Z,5.22
2023-02-22T03:52:02.311Z,5.18
2023-02-22T03:57:09.458Z,4.95
2023-02-22T04:02:11.013Z,5.60
2023-02-22T04:07:11.282Z,5.53
2023-02-22T04:12:10.752Z,5.50
2023-02-22T04:17:24.513Z,5.75
2023-02-22T04:22:24.891Z,13.63
2023-02-22T04:27:24.979Z,9.00
2023-02-22T04:32:26.645Z,5.38
2023-02-22T04:37:27.496Z,8.93
2023-02-22T04:42:27.051Z,7.80
2023-02-22T04:47:27.289Z,11.55
2023-02-22T04:52:28.623Z,14.65
2023-02-22T04:57:28.296Z,11.60
2023-02-22T05:02:27.905Z,8.13
2023-02-22T05:07:28.214Z,5.53
2023-02-22T05:12:28.652Z,5.75
2023-02-22T05:17:27.558Z,5.80
2023-02-22T05:22:27.944Z,4.80
2023-02-22T05:27:27.061Z,8.10
2023-02-22T05:32:25.870Z,10.23
2023-02-22T05:37:24.844Z,6.40
2023-02-22T05:42:25.068Z,8.18
2023-02-22T05:47:23.748Z,17.55
2023-02-22T05:52:22.584Z,13.05
2023-02-22T05:57:21.911Z,13.88
2023-02-22T06:02:22.112Z,10.52
2023-02-22T06:07:20.836Z,7.07
2023-02-22T06:12:19.710Z,7.30
2023-02-22T06:17:20.559Z,8.68
2023-02-22T06:22:21.343Z,5.97
2023-02-22T06:27:20.128Z,5.80
2023-02-22T06:32:19.004Z,5.03
2023-02-22T06:37:17.938Z,7.05
2023-02-22T06:42:18.186Z,5.78
2023-02-22T06:47:17.262Z,7.63
2023-02-22T06:52:15.978Z,6.20
2023-02-22T06:57:14.687Z,5.80
2023-02-22T07:02:21.351Z,5.35
2023-02-22T07:07:20.064Z,7.40
2023-02-22T07:12:18.925Z,6.93
2023-02-22T07:17:19.075Z,5.65
2023-02-22T07:22:17.910Z,5.72
2023-02-22T07:27:17.779Z,6.07
2023-02-22T07:32:16.665Z,6.13
2023-02-22T07:37:17.618Z,5.75
2023-02-22T07:42:16.747Z,7.85
2023-02-22T07:47:17.908Z,6.63
2023-02-22T07:52:18.125Z,7.63
2023-02-22T07:57:17.039Z,5.47
2023-02-22T08:02:17.125Z,5.88
2023-02-22T08:07:17.377Z,5.80
2023-02-22T08:12:16.627Z,6.45
2023-02-22T08:17:15.402Z,5.50
2023-02-22T08:22:14.234Z,6.10
2023-02-22T08:27:14.373Z,5.93
2023-02-22T08:32:13.246Z,5.63
2023-02-22T08:37:12.218Z,6.43
2023-02-22T08:42:11.473Z,5.70
2023-02-22T08:47:11.637Z,6.18
2023-02-22T08:52:10.961Z,6.57
2023-02-22T08:57:09.675Z,7.25
2023-02-22T09:02:16.944Z,6.03
2023-02-22T09:07:16.041Z,5.15
2023-02-22T09:12:15.922Z,5.78
2023-02-22T09:17:19.008Z,4.90
2023-02-22T09:22:26.241Z,5.50
2023-02-22T09:27:28.323Z,4.95
2023-02-22T09:32:28.851Z,4.33
2023-02-22T09:37:27.750Z,4.35
2023-02-22T09:42:33.756Z,3.65
2023-02-22T09:47:41.502Z,4.10
2023-02-22T09:52:47.611Z,4.45
2023-02-22T09:57:47.321Z,3.83
2023-02-22T10:02:53.820Z,4.18
2023-02-22T10:07:56.541Z,4.80
2023-02-22T10:13:02.700Z,5.13
2023-02-22T10:18:24.415Z,5.53
2023-02-22T10:23:31.996Z,5.03
2023-02-22T10:28:36.134Z,5.30
2023-02-22T10:33:47.713Z,4.60
2023-02-22T10:38:53.755Z,5.10
2023-02-22T10:43:52.736Z,4.28
2023-02-22T10:48:56.166Z,4.57
2023-02-22T10:54:00.881Z,3.92
2023-02-22T10:59:06.509Z,3.90
2023-02-22T11:04:13.435Z,4.07
2023-02-22T11:09:14.689Z,3.72
2023-02-22T11:14:16.356Z,3.38
2023-02-22T11:24:24.352Z,3.15
2023-02-22T11:29:27.268Z,3.65
2023-02-22T11:34:31.717Z,4.70
2023-02-22T11:39:35.698Z,3.22
2023-02-22T11:44:34.478Z,3.63
2023-02-22T11:49:38.366Z,2.95
2023-02-22T11:55:10.811Z,3.45
2023-02-22T12:00:24.792Z,2.97
2023-02-22T12:05:38.045Z,3.72
2023-02-22T12:10:49.765Z,3.97
2023-02-22T12:15:57.559Z,2.80
2023-02-22T12:21:01.674Z,3.30
2023-02-22T12:26:05.432Z,3.28
2023-02-22T12:31:19.856Z,3.20
2023-02-22T12:36:24.088Z,3.50
2023-02-22T12:41:29.879Z,2.97
2023-02-22T12:46:34.652Z,4.32
2023-02-22T12:51:42.404Z,4.22
2023-02-22T12:56:46.013Z,3.40
2023-02-22T13:01:51.613Z,3.40
2023-02-22T13:07:04.731Z,4.28
2023-02-22T13:12:10.389Z,4.18
2023-02-22T13:17:21.113Z,4.55
2023-02-22T13:27:29.511Z,5.25
2023-02-22T13:32:39.337Z,4.72
2023-02-22T13:37:52.959Z,3.70
2023-02-22T13:43:20.776Z,4.80
2023-02-22T13:49:06.761Z,4.28
2023-02-22T13:54:10.639Z,5.90
2023-02-22T13:59:25.469Z,5.50
2023-02-22T14:04:40.673Z,5.13
2023-02-22T14:09:48.401Z,5.78
2023-02-22T14:15:29.229Z,5.28
2023-02-22T14:20:35.257Z,5.97
2023-02-22T14:25:39.178Z,6.15
2023-02-22T14:30:40.293Z,8.13
2023-02-22T14:35:49.986Z,6.80
2023-02-22T14:40:52.878Z,7.38
2023-02-22T14:45:55.033Z,7.32
2023-02-22T14:50:58.647Z,7.60
2023-02-22T14:56:03.610Z,9.18
2023-02-22T15:01:24.321Z,7.82
2023-02-22T15:06:31.452Z,9.32
2023-02-22T15:11:33.377Z,9.38
2023-02-22T15:16:35.535Z,10.35
2023-02-22T15:21:35.530Z,9.68
2023-02-22T15:26:44.228Z,9.82
2023-02-22T15:31:48.247Z,8.73
2023-02-22T15:36:54.506Z,9.30
2023-02-22T15:42:05.231Z,10.02
2023-02-22T15:47:04.920Z,9.13
2023-02-22T15:52:07.963Z,10.77
2023-02-22T15:57:08.204Z,10.82
2023-02-22T16:02:07.190Z,9.13
2023-02-22T16:07:17.332Z,9.88
2023-02-22T16:12:29.252Z,10.93
2023-02-22T16:17:36.365Z,11.35
2023-02-22T16:22:37.038Z,10.27
2023-02-22T16:27:47.862Z,11.55
2023-02-22T16:32:47.391Z,10.73
2023-02-22T16:37:47.645Z,11.75
2023-02-22T16:42:47.765Z,11.18
2023-02-22T16:47:46.930Z,10.85
2023-02-22T16:52:45.990Z,12.82
2023-02-22T16:57:45.740Z,12.05
2023-02-22T17:02:46.673Z,12.13
2023-02-22T17:07:46.350Z,12.68
2023-02-22T17:12:47.585Z,11.95
2023-02-22T17:17:47.784Z,14.60
2023-02-22T17:22:47.860Z,13.23
2023-02-22T17:27:51.128Z,13.07
2023-02-22T17:32:52.636Z,12.23
2023-02-22T17:37:52.648Z,11.07
2023-02-22T17:42:55.306Z,10.82
2023-02-22T17:47:58.316Z,11.18
2023-02-22T17:57:58.767Z,11.57
2023-02-22T18:02:58.986Z,11.60
2023-02-22T18:07:59.413Z,26.00
2023-02-22T18:13:02.011Z,11.93
2023-02-22T18:18:06.499Z,11.60
2023-02-22T18:23:08.031Z,12.55
2023-02-22T18:28:08.266Z,11.73
2023-02-22T18:33:11.297Z,11.95
2023-02-22T18:38:14.683Z,10.80
2023-02-22T18:43:13.633Z,11.02
2023-02-22T18:48:20.482Z,12.82
2023-02-22T18:53:19.374Z,15.07
2023-02-22T18:58:18.136Z,13.30
2023-02-22T19:03:16.935Z,12.18
2023-02-22T19:08:17.176Z,11.07
2023-02-22T19:13:16.812Z,10.60
2023-02-22T19:18:15.560Z,14.07
2023-02-22T19:23:14.377Z,12.10
2023-02-22T19:28:15.667Z,12.98
2023-02-22T19:33:14.435Z,12.07
2023-02-22T19:38:13.442Z,10.82
2023-02-22T19:43:14.473Z,11.55
2023-02-22T19:48:15.627Z,11.32
2023-02-22T19:53:14.593Z,11.32
2023-02-22T19:58:15.424Z,12.30
2023-02-22T20:03:24.996Z,12.90
2023-02-22T20:08:26.408Z,10.73
2023-02-22T20:13:26.399Z,9.02
2023-02-22T20:18:27.350Z,9.60
2023-02-22T20:23:26.299Z,8.43
2023-02-22T20:28:25.521Z,8.45
2023-02-22T20:33:24.996Z,7.43
2023-02-22T20:38:25.232Z,6.50
2023-02-22T20:43:24.260Z,5.63
2023-02-22T20:48:26.242Z,4.60
2023-02-22T20:53:26.509Z,3.80
2023-02-22T20:58:30.345Z,6.80
2023-02-22T21:03:29.132Z,4.30
2023-02-22T21:08:29.295Z,4.15
2023-02-22T21:13:28.668Z,4.30
2023-02-22T21:18:33.217Z,3.65
2023-02-22T21:23:33.523Z,4.57
2023-02-22T21:28:50.394Z,8.27
2023-02-22T21:34:01.824Z,4.78
2023-02-22T21:39:08.552Z,4.57
2023-02-22T21:44:22.829Z,4.20
2023-02-22T21:49:23.843Z,4.78
2023-02-22T21:54:24.630Z,3.00
2023-02-22T21:59:24.085Z,3.50
2023-02-22T22:04:27.872Z,3.90
2023-02-22T22:09:33.273Z,4.57
2023-02-22T22:14:32.392Z,3.50
2023-02-22T22:19:35.003Z,3.63
2023-02-22T22:24:35.488Z,5.45
2023-02-22T22:29:35.283Z,2.67
2023-02-22T22:34:35.079Z,3.17
2023-02-22T22:39:35.284Z,4.35
2023-02-22T22:44:41.997Z,3.03
2023-02-22T22:49:42.667Z,2.78
2023-02-22T22:54:45.789Z,4.18
2023-02-22T22:59:44.552Z,4.40
2023-02-22T23:04:43.458Z,6.20
2023-02-22T23:09:45.080Z,5.70
2023-02-22T23:14:47.146Z,6.15
2023-02-22T23:19:46.531Z,6.40
2023-02-22T23:24:46.675Z,5.72
2023-02-22T23:29:46.845Z,5.80
2023-02-22T23:34:49.635Z,5.35
2023-02-22T23:39:51.042Z,5.82
2023-02-22T23:44:53.066Z,6.25
2023-02-22T23:49:51.944Z,6.57
2023-02-22T23:54:53.954Z,5.40
2023-02-22T23:59:53.007Z,6.57
